Time;durP1;ratioP1;P1;durP2;ratioP2;P2;SDS_P1;SDS_P2;PMS_P1;PMS_P2;Temp;Humidity;BMP_temperature;BMP_pressure;BME280_temperature;BME280_humidity;BME280_pressure;Samples;Min_cycle;Max_cycle;Signal;HPM_P1;HPM_P2
2023/01/18 00:00:34;;;;;;;9.98;4.03;;;0.50;1.00;;;;;;5031832;28;20029;-75
2023/01/18 00:03:00;;;;;;;13.27;5.18;;;0.50;1.00;;;;;;5031951;28;20450;-75
2023/01/18 00:05:26;;;;;;;9.25;4.22;;;0.40;1.00;;;;;;5012380;28;20037;-76
2023/01/18 00:07:52;;;;;;;7.53;4.15;;;0.40;1.00;;;;;;5030637;28;20048;-74
2023/01/18 00:10:20;;;;;;;7.47;4.95;;;0.40;1.00;;;;;;5030827;28;20467;-75
2023/01/18 00:12:46;;;;;;;10.80;4.43;;;0.40;1.00;;;;;;5031685;28;20049;-75
2023/01/18 00:15:12;;;;;;;8.00;4.25;;;0.40;1.00;;;;;;5031134;28;20093;-75
2023/01/18 00:17:46;;;;;;;8.00;4.53;;;0.40;1.00;;;;;;5030748;28;20049;-75
2023/01/18 00:20:13;;;;;;;8.13;4.05;;;0.30;1.00;;;;;;5032233;28;20383;-75
2023/01/18 00:22:40;;;;;;;9.80;4.28;;;0.30;1.00;;;;;;5031886;28;20045;-75
2023/01/18 00:25:06;;;;;;;8.02;4.55;;;0.30;1.00;;;;;;5031269;28;20037;-75
2023/01/18 00:27:32;;;;;;;6.30;3.50;;;0.20;1.00;;;;;;5030741;28;20033;-75
2023/01/18 00:29:58;;;;;;;9.70;4.07;;;0.20;1.00;;;;;;5030715;28;20041;-75
2023/01/18 00:32:24;;;;;;;7.78;4.63;;;0.30;1.00;;;;;;5031088;28;20124;-75
2023/01/18 00:34:51;;;;;;;8.10;4.20;;;0.20;1.00;;;;;;5024036;28;20049;-75
2023/01/18 00:37:17;;;;;;;10.82;4.60;;;0.20;1.00;;;;;;5030579;28;20038;-76
2023/01/18 00:39:43;;;;;;;9.27;5.40;;;0.20;1.00;;;;;;5035828;28;20040;-75
2023/01/18 00:44:54;;;;;;;11.63;4.40;;;0.20;1.00;;;;;;5038474;28;20040;-75
2023/01/18 00:47:20;;;;;;;11.32;5.00;;;0.20;1.00;;;;;;5037606;28;20105;-76
2023/01/18 00:49:46;;;;;;;14.95;6.15;;;0.20;1.00;;;;;;5037365;28;20034;-78
2023/01/18 00:52:12;;;;;;;25.08;9.57;;;0.20;1.00;;;;;;5033291;28;20048;-75
2023/01/18 00:54:38;;;;;;;15.85;6.22;;;0.30;1.00;;;;;;5032351;28;20049;-78
2023/01/18 00:57:04;;;;;;;13.63;4.75;;;0.20;1.00;;;;;;5024785;28;20033;-75
2023/01/18 00:59:30;;;;;;;7.70;4.68;;;0.20;1.00;;;;;;5027051;28;20060;-75
2023/01/18 01:01:57;;;;;;;10.38;5.15;;;0.20;1.00;;;;;;5031158;28;20038;-74
2023/01/18 01:07:07;;;;;;;9.18;3.88;;;0.20;1.00;;;;;;5030835;28;20045;-74
2023/01/18 01:09:34;;;;;;;10.35;5.32;;;0.20;1.00;;;;;;5035158;28;20034;-74
2023/01/18 01:26:06;;;;;;;9.07;4.32;;;0.30;1.00;;;;;;5033169;28;20473;-74
2023/01/18 01:28:34;;;;;;;6.90;3.95;;;0.30;1.00;;;;;;5032844;28;20040;-74
2023/01/18 01:31:02;;;;;;;6.75;3.70;;;0.30;1.00;;;;;;5033347;28;20041;-74
2023/01/18 01:33:30;;;;;;;8.13;4.05;;;0.30;1.00;;;;;;5033608;28;20037;-75
2023/01/18 01:35:57;;;;;;;8.38;4.03;;;0.30;1.00;;;;;;5034463;28;20416;-74
2023/01/18 01:38:24;;;;;;;7.93;3.67;;;0.30;1.00;;;;;;5032781;28;20056;-75
2023/01/18 01:41:09;;;;;;;9.63;3.92;;;0.40;1.00;;;;;;5034157;28;20064;-74
2023/01/18 01:43:44;;;;;;;7.32;3.35;;;0.40;1.00;;;;;;5027498;28;20030;-74
2023/01/18 01:46:17;;;;;;;9.57;4.10;;;0.40;1.00;;;;;;5027496;28;20029;-75
2023/01/18 01:48:43;;;;;;;11.68;6.03;;;0.40;1.00;;;;;;5033213;28;20040;-75
2023/01/18 01:51:10;;;;;;;9.40;4.70;;;0.40;1.00;;;;;;5032826;28;20034;-75
2023/01/18 01:53:37;;;;;;;8.13;3.55;;;0.40;1.00;;;;;;5033484;28;20037;-76
2023/01/18 01:56:03;;;;;;;8.85;4.22;;;0.40;1.00;;;;;;5032639;28;20447;-76
2023/01/18 01:58:30;;;;;;;8.48;3.20;;;0.50;1.00;;;;;;5031940;28;20041;-75
2023/01/18 02:00:57;;;;;;;8.07;3.88;;;0.50;1.00;;;;;;5034321;28;20033;-74
2023/01/18 02:03:24;;;;;;;8.00;4.03;;;0.50;1.00;;;;;;5033002;28;20029;-75
2023/01/18 02:06:07;;;;;;;6.57;4.20;;;0.50;1.00;;;;;;5032396;28;20041;-74
2023/01/18 02:08:34;;;;;;;7.65;4.07;;;0.50;1.00;;;;;;5028323;28;20044;-74
2023/01/18 02:11:00;;;;;;;8.82;4.18;;;0.50;1.00;;;;;;5033453;28;20036;-75
2023/01/18 02:13:26;;;;;;;11.02;3.75;;;0.50;1.00;;;;;;5033007;28;20034;-75
2023/01/18 02:16:04;;;;;;;9.30;3.70;;;0.50;1.00;;;;;;5032061;28;20033;-75
2023/01/18 02:18:59;;;;;;;9.23;4.70;;;0.50;1.00;;;;;;5032853;28;20178;-74
2023/01/18 02:21:39;;;;;;;6.75;3.40;;;0.60;1.00;;;;;;5032867;28;20045;-74
2023/01/18 02:24:35;;;;;;;8.80;3.92;;;0.60;1.00;;;;;;5027509;28;20033;-75
2023/01/18 02:27:21;;;;;;;5.88;3.92;;;0.60;1.00;;;;;;5012939;28;20490;-74
2023/01/18 02:30:10;;;;;;;8.80;4.05;;;0.50;1.00;;;;;;5023810;28;20037;-75
2023/01/18 02:33:02;;;;;;;8.15;3.47;;;0.50;1.00;;;;;;5021247;28;20037;-78
2023/01/18 02:35:48;;;;;;;6.68;3.83;;;0.50;1.00;;;;;;5033208;28;20399;-74
2023/01/18 02:38:27;;;;;;;5.65;3.22;;;0.60;1.00;;;;;;5026915;28;20033;-74
2023/01/18 02:41:02;;;;;;;6.47;3.50;;;0.60;1.00;;;;;;5032182;28;20459;-74
2023/01/18 02:46:32;;;;;;;7.40;2.85;;;0.60;1.00;;;;;;5032816;28;20033;-74
2023/01/18 02:49:09;;;;;;;5.53;3.70;;;0.60;1.00;;;;;;5033120;28;20033;-74
2023/01/18 02:51:36;;;;;;;9.27;4.43;;;0.60;1.00;;;;;;5032153;28;20044;-75
2023/01/18 02:54:07;;;;;;;7.75;4.03;;;0.60;1.00;;;;;;5022782;28;20475;-74
2023/01/18 02:56:45;;;;;;;9.40;4.53;;;0.60;1.00;;;;;;5023522;28;20393;-78
2023/01/18 02:59:20;;;;;;;7.22;4.03;;;0.60;1.00;;;;;;5022426;28;20762;-74
2023/01/18 03:01:51;;;;;;;8.93;3.38;;;0.60;1.00;;;;;;5025225;28;20037;-75
2023/01/18 03:04:28;;;;;;;6.03;3.65;;;0.60;1.00;;;;;;5023190;28;20065;-75
2023/01/18 03:07:07;;;;;;;7.38;3.83;;;0.60;1.00;;;;;;5022881;28;20136;-74
2023/01/18 03:09:34;;;;;;;7.50;3.38;;;0.60;1.00;;;;;;5022121;28;20038;-74
2023/01/18 03:12:12;;;;;;;6.80;3.58;;;0.60;1.00;;;;;;5025260;28;20474;-75
2023/01/18 03:15:01;;;;;;;5.50;3.42;;;0.60;1.00;;;;;;5024677;28;20188;-74
2023/01/18 03:17:32;;;;;;;5.43;3.10;;;0.70;1.00;;;;;;5022238;28;20391;-74
2023/01/18 03:20:08;;;;;;;9.25;3.38;;;0.70;1.00;;;;;;5031719;28;20372;-75
2023/01/18 03:25:43;;;;;;;7.63;3.17;;;0.70;1.00;;;;;;5030226;28;20048;-75
2023/01/18 03:34:08;;;;;;;7.82;3.15;;;0.70;1.00;;;;;;5032025;28;20041;-76
2023/01/18 03:36:42;;;;;;;10.90;3.90;;;0.70;1.00;;;;;;5029872;28;20039;-74
2023/01/18 03:39:27;;;;;;;5.32;3.05;;;0.70;1.00;;;;;;5030891;28;20048;-74
2023/01/18 03:42:01;;;;;;;5.82;2.55;;;0.70;1.00;;;;;;5014371;28;20068;-75
2023/01/18 03:44:37;;;;;;;6.95;3.55;;;0.70;1.00;;;;;;5031006;28;20081;-74
2023/01/18 03:47:05;;;;;;;5.63;2.78;;;0.70;1.00;;;;;;5024389;28;20040;-74
2023/01/18 03:49:32;;;;;;;5.50;3.05;;;0.70;1.00;;;;;;5024324;28;20052;-75
2023/01/18 03:52:20;;;;;;;8.85;3.08;;;0.70;1.00;;;;;;5031812;28;20037;-75
2023/01/18 03:55:15;;;;;;;7.60;3.22;;;0.70;1.00;;;;;;5013730;28;20049;-75
2023/01/18 03:57:54;;;;;;;10.32;3.20;;;0.80;1.00;;;;;;5029242;28;20033;-75
2023/01/18 04:00:21;;;;;;;8.90;3.42;;;0.80;1.00;;;;;;5013428;28;20120;-78
2023/01/18 04:02:49;;;;;;;7.22;2.97;;;0.80;1.00;;;;;;5031012;28;20033;-76
2023/01/18 04:05:15;;;;;;;8.38;3.08;;;0.70;1.00;;;;;;5024839;28;20029;-75
2023/01/18 04:07:42;;;;;;;5.97;2.80;;;0.80;1.00;;;;;;5022516;28;20021;-75
2023/01/18 04:10:10;;;;;;;3.95;2.10;;;0.80;1.00;;;;;;5031102;28;20025;-76
2023/01/18 04:12:36;;;;;;;7.03;2.65;;;0.80;1.00;;;;;;5030407;28;20501;-75
2023/01/18 04:15:03;;;;;;;4.78;2.70;;;0.80;1.00;;;;;;5031177;28;20033;-75
2023/01/18 04:17:29;;;;;;;5.90;2.70;;;0.80;1.00;;;;;;5029019;28;20430;-76
2023/01/18 04:19:55;;;;;;;8.30;3.45;;;0.80;1.00;;;;;;5031482;28;20029;-76
2023/01/18 04:22:22;;;;;;;8.32;3.08;;;0.80;1.00;;;;;;5030699;28;20029;-78
2023/01/18 04:24:48;;;;;;;5.93;2.60;;;0.80;1.00;;;;;;5030266;28;20042;-76
2023/01/18 04:27:14;;;;;;;6.55;2.80;;;0.80;1.00;;;;;;5028475;28;20045;-75
2023/01/18 04:29:40;;;;;;;5.38;3.10;;;0.80;1.00;;;;;;5029748;28;20042;-75
2023/01/18 04:32:06;;;;;;;7.53;3.13;;;0.90;1.00;;;;;;5029955;28;20050;-76
2023/01/18 04:34:33;;;;;;;7.13;2.88;;;0.90;1.00;;;;;;5029484;28;20045;-77
2023/01/18 04:36:59;;;;;;;7.07;3.65;;;0.80;1.00;;;;;;5030280;28;20502;-75
2023/01/18 04:39:25;;;;;;;5.90;2.75;;;0.90;1.00;;;;;;5031205;28;20030;-77
2023/01/18 04:41:51;;;;;;;4.65;2.83;;;0.80;1.00;;;;;;5030925;28;20406;-75
2023/01/18 04:44:17;;;;;;;6.07;3.10;;;0.80;1.00;;;;;;5031891;28;20463;-74
2023/01/18 04:46:44;;;;;;;9.73;3.83;;;0.70;1.00;;;;;;5030063;28;20025;-75
2023/01/18 04:49:14;;;;;;;5.78;2.72;;;0.70;1.00;;;;;;5028000;28;20034;-76
2023/01/18 04:51:41;;;;;;;8.77;4.03;;;0.60;1.00;;;;;;5030383;28;20033;-76
2023/01/18 04:54:08;;;;;;;8.02;3.30;;;0.60;1.00;;;;;;5028714;28;20100;-76
2023/01/18 04:56:34;;;;;;;4.90;3.25;;;0.60;1.00;;;;;;5030049;28;20029;-77
2023/01/18 04:59:01;;;;;;;7.93;3.20;;;0.50;1.00;;;;;;5030587;28;20064;-77
2023/01/18 05:01:28;;;;;;;10.45;3.15;;;0.50;1.00;;;;;;5031281;28;20037;-77
2023/01/18 05:03:55;;;;;;;5.15;3.42;;;0.50;1.00;;;;;;5025207;28;20040;-75
2023/01/18 05:06:22;;;;;;;4.97;3.22;;;0.50;1.00;;;;;;5031016;28;20030;-85
2023/01/18 05:08:49;;;;;;;4.78;2.83;;;0.60;1.00;;;;;;5043427;28;20049;-77
2023/01/18 05:11:19;;;;;;;6.75;3.00;;;0.50;1.00;;;;;;5051881;28;20034;-77
2023/01/18 05:13:45;;;;;;;8.15;3.30;;;0.50;1.00;;;;;;5047557;28;20034;-78
2023/01/18 05:16:14;;;;;;;7.90;3.20;;;0.60;1.00;;;;;;5040888;28;20038;-78
2023/01/18 05:18:41;;;;;;;5.28;3.20;;;0.60;1.00;;;;;;5034961;28;20049;-77
2023/01/18 05:21:08;;;;;;;5.53;2.67;;;0.60;1.00;;;;;;5031269;28;20360;-77
2023/01/18 05:23:34;;;;;;;7.72;2.97;;;0.60;1.00;;;;;;5030048;28;20372;-78
2023/01/18 05:26:00;;;;;;;9.65;3.38;;;0.70;1.00;;;;;;5013798;28;20049;-79
2023/01/18 05:28:27;;;;;;;7.30;3.40;;;0.70;1.00;;;;;;5030324;28;20025;-77
2023/01/18 05:30:54;;;;;;;7.15;3.38;;;0.70;1.00;;;;;;5032641;28;20045;-76
2023/01/18 05:33:21;;;;;;;5.07;3.22;;;0.70;1.00;;;;;;5032518;28;20045;-76
2023/01/18 05:35:53;;;;;;;8.32;3.00;;;0.70;1.00;;;;;;5033899;28;20048;-76
2023/01/18 05:38:21;;;;;;;5.60;2.92;;;0.70;1.00;;;;;;5032740;28;20038;-76
2023/01/18 05:40:51;;;;;;;5.53;3.05;;;0.70;1.00;;;;;;5031858;28;20037;-76
2023/01/18 05:43:18;;;;;;;5.00;2.60;;;0.70;1.00;;;;;;5033930;28;20037;-76
2023/01/18 05:45:44;;;;;;;7.18;3.60;;;0.70;1.00;;;;;;5033393;28;20025;-76
2023/01/18 05:48:11;;;;;;;9.13;3.92;;;0.80;1.00;;;;;;5031654;28;20422;-76
2023/01/18 05:50:39;;;;;;;7.22;3.70;;;0.80;1.00;;;;;;5032870;28;20490;-76
2023/01/18 05:53:14;;;;;;;5.57;3.20;;;0.70;1.00;;;;;;5032504;28;20046;-77
2023/01/18 05:55:40;;;;;;;6.20;2.90;;;0.70;1.00;;;;;;5031969;28;20053;-75
2023/01/18 05:58:06;;;;;;;5.93;2.67;;;0.60;1.00;;;;;;5030986;28;20375;-76
2023/01/18 06:00:33;;;;;;;7.10;3.38;;;0.60;1.00;;;;;;5031495;28;20040;-76
2023/01/18 06:03:00;;;;;;;5.72;3.47;;;0.60;1.00;;;;;;5014212;28;20045;-76
2023/01/18 06:05:27;;;;;;;7.22;3.50;;;0.50;1.00;;;;;;5033344;28;20052;-77
2023/01/18 06:07:54;;;;;;;7.75;3.33;;;0.50;1.00;;;;;;5031998;28;20395;-75
2023/01/18 06:10:20;;;;;;;5.85;3.78;;;0.50;1.00;;;;;;5033102;28;20041;-76
2023/01/18 06:12:46;;;;;;;7.80;3.67;;;0.50;1.00;;;;;;5027398;28;20026;-76
2023/01/18 06:15:14;;;;;;;8.35;4.07;;;0.50;1.00;;;;;;5033288;28;20042;-77
2023/01/18 06:17:40;;;;;;;7.00;4.22;;;0.50;1.00;;;;;;5031806;28;20053;-77
2023/01/18 06:20:07;;;;;;;9.90;4.07;;;0.50;1.00;;;;;;5040341;28;20030;-75
2023/01/18 06:22:33;;;;;;;7.20;3.83;;;0.50;1.00;;;;;;5033560;28;20390;-78
2023/01/18 06:24:59;;;;;;;9.98;4.88;;;0.40;1.00;;;;;;5033686;28;20379;-76
2023/01/18 06:27:25;;;;;;;8.85;4.28;;;0.40;1.00;;;;;;5030482;28;20044;-77
2023/01/18 06:29:52;;;;;;;10.23;4.82;;;0.40;1.00;;;;;;5016003;28;20045;-76
2023/01/18 06:32:18;;;;;;;12.38;3.50;;;0.40;1.00;;;;;;5032339;28;20040;-75
2023/01/18 06:34:44;;;;;;;6.95;3.50;;;0.40;1.00;;;;;;5030270;28;20394;-76
2023/01/18 06:37:11;;;;;;;7.68;4.05;;;0.40;1.00;;;;;;5031573;28;20406;-76
2023/01/18 06:39:38;;;;;;;7.50;3.67;;;0.40;1.00;;;;;;5032811;28;20041;-75
2023/01/18 06:42:05;;;;;;;7.85;4.35;;;0.40;1.00;;;;;;5032214;28;20376;-75
2023/01/18 06:44:31;;;;;;;6.88;3.75;;;0.30;1.00;;;;;;5033120;28;20025;-75
2023/01/18 06:46:58;;;;;;;6.60;3.33;;;0.30;1.00;;;;;;5031066;28;20037;-76
2023/01/18 06:49:24;;;;;;;6.75;3.75;;;0.30;1.00;;;;;;5031463;28;20049;-75
2023/01/18 06:51:50;;;;;;;7.35;3.65;;;0.30;1.00;;;;;;5031782;28;20029;-75
2023/01/18 06:54:16;;;;;;;10.35;4.18;;;0.30;1.00;;;;;;5030865;28;20037;-75
2023/01/18 06:56:42;;;;;;;7.32;3.83;;;0.30;1.00;;;;;;5029781;28;20048;-76
2023/01/18 06:59:08;;;;;;;5.57;3.00;;;0.20;1.00;;;;;;5033057;28;20038;-76
2023/01/18 07:01:34;;;;;;;8.55;4.22;;;0.20;1.00;;;;;;5032416;28;20455;-77
2023/01/18 07:04:01;;;;;;;7.28;3.38;;;0.20;1.00;;;;;;5031954;28;20037;-77
2023/01/18 07:06:27;;;;;;;5.38;3.40;;;0.10;1.00;;;;;;5030587;28;20030;-76
2023/01/18 07:08:53;;;;;;;8.65;3.30;;;0.20;1.00;;;;;;5013261;28;20053;-77
2023/01/18 07:11:19;;;;;;;7.57;3.08;;;0.20;1.00;;;;;;5014945;28;20041;-77
2023/01/18 07:13:46;;;;;;;6.68;3.72;;;0.20;1.00;;;;;;5032044;28;20521;-77
2023/01/18 07:16:16;;;;;;;10.95;4.38;;;0.10;1.00;;;;;;5031384;28;20049;-77
2023/01/18 07:18:45;;;;;;;6.78;3.25;;;0.10;1.00;;;;;;5005290;28;20046;-77
2023/01/18 07:21:12;;;;;;;4.85;2.55;;;0.10;1.00;;;;;;5032317;28;20475;-77
2023/01/18 07:23:39;;;;;;;8.30;2.78;;;0.10;1.00;;;;;;5031279;28;20109;-77
2023/01/18 07:26:15;;;;;;;8.10;3.15;;;0.10;1.00;;;;;;5024454;28;20379;-77
2023/01/18 07:28:42;;;;;;;6.22;3.50;;;0.20;1.00;;;;;;5031568;28;20029;-77
2023/01/18 07:31:09;;;;;;;8.48;4.05;;;0.20;1.00;;;;;;5030876;28;20045;-77
2023/01/18 07:33:35;;;;;;;8.60;4.03;;;0.20;1.00;;;;;;5030229;28;20041;-76
2023/01/18 07:36:08;;;;;;;7.32;3.65;;;0.20;1.00;;;;;;5031650;28;20046;-77
2023/01/18 07:38:34;;;;;;;8.68;3.38;;;0.20;1.00;;;;;;5005731;28;20057;-77
2023/01/18 07:41:04;;;;;;;9.13;3.13;;;0.30;1.00;;;;;;5032331;28;20025;-77
2023/01/18 07:43:31;;;;;;;7.55;3.13;;;0.30;1.00;;;;;;5030378;28;20398;-77
2023/01/18 07:46:00;;;;;;;5.93;2.97;;;0.40;1.00;;;;;;5014034;28;20045;-77
2023/01/18 07:48:27;;;;;;;6.82;3.38;;;0.40;1.00;;;;;;5030233;28;20037;-77
2023/01/18 07:50:56;;;;;;;5.45;2.55;;;0.50;1.00;;;;;;5032292;28;20029;-77
2023/01/18 07:53:23;;;;;;;6.32;2.78;;;0.50;1.00;;;;;;5023125;28;20056;-77
2023/01/18 07:55:50;;;;;;;7.95;2.28;;;0.60;1.00;;;;;;5024888;28;20033;-77
2023/01/18 07:58:17;;;;;;;4.35;2.65;;;0.60;1.00;;;;;;5029993;28;20033;-77
2023/01/18 08:00:44;;;;;;;5.15;3.00;;;0.70;1.00;;;;;;5030012;28;20037;-76
2023/01/18 08:03:16;;;;;;;5.97;3.33;;;0.70;1.00;;;;;;5030837;28;20049;-77
2023/01/18 08:05:42;;;;;;;5.10;2.72;;;0.80;1.00;;;;;;5030384;28;20041;-77
2023/01/18 08:08:10;;;;;;;5.60;2.42;;;0.90;1.00;;;;;;5031043;28;20026;-77
2023/01/18 08:10:37;;;;;;;8.68;2.90;;;0.90;1.00;;;;;;5031124;28;20033;-77
2023/01/18 08:13:05;;;;;;;6.63;2.80;;;1.00;1.00;;;;;;5014088;28;20038;-77
2023/01/18 08:15:31;;;;;;;5.47;2.55;;;1.00;1.00;;;;;;5030547;28;20045;-77
2023/01/18 08:18:01;;;;;;;7.82;3.22;;;1.00;1.00;;;;;;5029073;28;20061;-75
2023/01/18 08:20:28;;;;;;;4.80;2.37;;;1.10;1.00;;;;;;5031713;28;20474;-75
2023/01/18 08:22:56;;;;;;;7.82;3.33;;;1.10;1.00;;;;;;5031500;28;20042;-76
2023/01/18 08:25:24;;;;;;;5.28;2.33;;;1.10;1.00;;;;;;5031784;28;20036;-75
2023/01/18 08:27:50;;;;;;;4.90;2.53;;;1.10;1.00;;;;;;5028645;28;20041;-76
2023/01/18 08:30:16;;;;;;;5.68;2.22;;;1.10;1.00;;;;;;5032126;28;20036;-76
2023/01/18 08:32:42;;;;;;;6.53;2.67;;;1.10;1.00;;;;;;5030355;28;20049;-76
2023/01/18 08:35:08;;;;;;;5.97;2.38;;;1.10;1.00;;;;;;5031640;28;20034;-76
2023/01/18 08:37:35;;;;;;;5.32;2.17;;;1.10;1.00;;;;;;5029609;28;20029;-77
2023/01/18 08:40:01;;;;;;;4.63;2.40;;;1.10;1.00;;;;;;5014335;28;20041;-76
2023/01/18 08:42:27;;;;;;;5.15;2.55;;;1.10;1.00;;;;;;5031713;28;20038;-82
2023/01/18 08:44:53;;;;;;;5.53;2.30;;;1.10;1.00;;;;;;5031334;28;20036;-77
2023/01/18 08:47:19;;;;;;;5.53;2.33;;;1.10;1.00;;;;;;5030107;28;20037;-77
2023/01/18 08:49:45;;;;;;;4.18;1.80;;;1.10;1.00;;;;;;5031193;28;20037;-77
2023/01/18 08:52:14;;;;;;;6.97;1.88;;;1.10;1.00;;;;;;5031748;28;20034;-77
2023/01/18 08:54:40;;;;;;;4.68;1.80;;;1.10;1.00;;;;;;5031117;28;20042;-77
2023/01/18 08:57:08;;;;;;;8.30;2.63;;;1.10;1.00;;;;;;5030431;28;20049;-77
2023/01/18 08:59:34;;;;;;;4.03;1.58;;;1.10;1.00;;;;;;5034126;28;20364;-77
2023/01/18 09:02:00;;;;;;;3.70;1.50;;;1.20;1.00;;;;;;5035166;28;20037;-77
2023/01/18 09:04:28;;;;;;;4.85;2.67;;;1.20;1.00;;;;;;5035251;28;20470;-78
2023/01/18 09:06:54;;;;;;;4.25;2.03;;;1.20;1.00;;;;;;5033320;28;20375;-78
2023/01/18 09:09:21;;;;;;;3.20;1.60;;;1.20;1.00;;;;;;5035361;28;20037;-77
2023/01/18 09:11:50;;;;;;;3.88;1.67;;;1.30;1.00;;;;;;5034422;28;20033;-76
2023/01/18 09:14:17;;;;;;;3.38;1.73;;;1.30;1.00;;;;;;5035097;28;20060;-77
2023/01/18 09:16:43;;;;;;;4.72;2.17;;;1.40;1.00;;;;;;5033184;28;20041;-77
2023/01/18 09:19:10;;;;;;;4.22;1.90;;;1.50;1.00;;;;;;5034776;28;20068;-76
2023/01/18 09:21:36;;;;;;;4.88;2.15;;;1.50;1.00;;;;;;5034599;28;20033;-77
2023/01/18 09:24:02;;;;;;;8.73;2.30;;;1.50;99.90;;;;;;5034911;28;20060;-77
2023/01/18 09:26:29;;;;;;;3.08;1.45;;;1.50;99.90;;;;;;5034395;28;20025;-76
2023/01/18 09:28:55;;;;;;;3.85;1.65;;;1.50;99.90;;;;;;5047931;28;20033;-77
2023/01/18 09:31:24;;;;;;;4.93;2.17;;;1.70;99.90;;;;;;5042875;28;20494;-76
2023/01/18 09:33:51;;;;;;;4.25;1.65;;;1.70;99.90;;;;;;5049356;28;20037;-77
2023/01/18 09:36:17;;;;;;;5.13;2.75;;;1.70;99.90;;;;;;5046428;28;20038;-76
2023/01/18 09:38:44;;;;;;;4.65;1.95;;;1.70;99.90;;;;;;5039793;28;20034;-75
2023/01/18 09:41:37;;;;;;;8.00;2.33;;;1.70;99.90;;;;;;5018326;28;20049;-76
2023/01/18 09:44:12;;;;;;;4.00;1.77;;;1.70;99.90;;;;;;5010266;28;20045;-75
2023/01/18 09:46:41;;;;;;;4.57;2.55;;;1.80;99.90;;;;;;5031274;28;20042;-76
2023/01/18 09:49:27;;;;;;;8.25;2.90;;;1.80;99.90;;;;;;5033346;28;20470;-74
2023/01/18 09:52:14;;;;;;;7.65;2.55;;;1.90;99.90;;;;;;5033393;28;20256;-75
2023/01/18 09:55:18;;;;;;;5.38;1.90;;;2.00;99.90;;;;;;5032215;28;20391;-74
2023/01/18 09:58:18;;;;;;;7.45;1.70;;;2.00;99.90;;;;;;4997628;28;20116;-74
2023/01/18 10:00:47;;;;;;;3.75;1.70;;;2.10;99.90;;;;;;5035270;28;20041;-77
2023/01/18 10:03:20;;;;;;;4.90;2.08;;;2.10;99.90;;;;;;5032841;28;20049;-76
2023/01/18 10:06:07;;;;;;;6.93;2.00;;;2.10;99.90;;;;;;5016068;28;20064;-77
2023/01/18 10:08:53;;;;;;;4.72;1.88;;;2.30;99.90;;;;;;5032058;28;20041;-76
2023/01/18 10:11:50;;;;;;;3.10;1.70;;;2.20;99.90;;;;;;5033808;28;20033;-80
2023/01/18 10:14:37;;;;;;;8.77;2.05;;;2.30;99.90;;;;;;5031221;28;20033;-77
2023/01/18 10:17:12;;;;;;;7.25;1.73;;;2.30;99.90;;;;;;5032144;28;20490;-77
2023/01/18 10:19:40;;;;;;;7.38;3.28;;;2.40;99.90;;;;;;5032990;28;20034;-77
2023/01/18 10:22:15;;;;;;;4.57;1.90;;;2.30;99.90;;;;;;5033410;28;20041;-76
2023/01/18 10:25:01;;;;;;;3.95;1.45;;;2.50;99.90;;;;;;5026783;28;20067;-76
2023/01/18 10:27:42;;;;;;;5.35;1.60;;;2.70;99.90;;;;;;5032473;28;20029;-78
2023/01/18 10:30:20;;;;;;;3.22;1.73;;;2.70;99.90;;;;;;5033491;28;20034;-74
2023/01/18 10:32:56;;;;;;;5.88;1.80;;;2.70;99.90;;;;;;5031378;28;20030;-75
2023/01/18 10:35:54;;;;;;;2.95;1.42;;;2.80;99.90;;;;;;5027610;28;20049;-75
2023/01/18 10:38:24;;;;;;;3.33;1.50;;;2.90;99.90;;;;;;5028798;28;20037;-74
2023/01/18 10:41:01;;;;;;;4.07;1.65;;;2.90;99.90;;;;;;5032641;28;20038;-74
2023/01/18 10:43:30;;;;;;;6.07;1.52;;;3.10;99.90;;;;;;5033496;28;20044;-75
2023/01/18 10:45:56;;;;;;;4.32;1.52;;;3.20;99.90;;;;;;5031235;28;20037;-78
2023/01/18 10:48:33;;;;;;;4.43;1.50;;;3.20;99.90;;;;;;5032753;28;20052;-78
2023/01/18 10:51:05;;;;;;;6.22;2.15;;;3.20;99.90;;;;;;5025590;28;20475;-75
2023/01/18 10:53:36;;;;;;;4.82;1.67;;;3.20;99.90;;;;;;5025649;28;20038;-76
2023/01/18 10:56:11;;;;;;;6.13;2.47;;;3.00;99.90;;;;;;5033366;28;20041;-75
2023/01/18 10:58:50;;;;;;;2.50;1.38;;;3.00;99.90;;;;;;5031048;28;20364;-75
2023/01/18 11:01:18;;;;;;;6.15;2.20;;;3.20;99.90;;;;;;5014728;28;20048;-76
2023/01/18 11:04:15;;;;;;;8.57;1.85;;;3.30;99.90;;;;;;5032358;28;20052;-78
2023/01/18 11:06:55;;;;;;;6.88;2.05;;;3.30;99.90;;;;;;5030676;28;20045;-76
2023/01/18 11:09:54;;;;;;;3.75;1.58;;;3.20;99.90;;;;;;5032763;28;20030;-82
2023/01/18 11:12:46;;;;;;;3.78;1.67;;;3.20;99.90;;;;;;5032591;28;20064;-80
2023/01/18 11:15:12;;;;;;;4.75;2.00;;;3.40;99.90;;;;;;5031567;28;20509;-84
2023/01/18 11:17:42;;;;;;;6.68;3.78;;;3.30;99.90;;;;;;5029128;28;20057;-83
2023/01/18 11:20:15;;;;;;;5.00;1.92;;;3.40;99.90;;;;;;5032927;28;20034;-79
2023/01/18 11:23:14;;;;;;;7.80;1.52;;;3.40;99.90;;;;;;5030700;28;20033;-83
2023/01/18 11:25:55;;;;;;;4.43;1.48;;;3.30;99.90;;;;;;5030140;28;20494;-83
2023/01/18 11:28:29;;;;;;;3.92;1.38;;;3.30;99.90;;;;;;5032590;28;20041;-84
2023/01/18 11:31:20;;;;;;;3.50;1.67;;;3.40;99.90;;;;;;5033024;28;20044;-85
2023/01/18 11:34:01;;;;;;;8.40;1.70;;;3.40;99.90;;;;;;5031330;28;20041;-79
2023/01/18 11:36:42;;;;;;;9.68;2.00;;;3.30;99.90;;;;;;5029882;28;20038;-78
2023/01/18 11:39:21;;;;;;;4.55;1.98;;;3.10;99.90;;;;;;5032347;28;20053;-76
2023/01/18 11:41:48;;;;;;;6.03;1.95;;;3.20;99.90;;;;;;5031677;28;20030;-83
2023/01/18 11:44:28;;;;;;;4.32;1.65;;;3.40;99.90;;;;;;5032750;28;20528;-83
2023/01/18 11:46:57;;;;;;;2.92;1.58;;;3.40;99.90;;;;;;5032355;28;20044;-82
2023/01/18 11:49:50;;;;;;;6.90;2.78;;;3.50;99.90;;;;;;5031981;28;20033;-80
2023/01/18 11:52:23;;;;;;;4.70;1.20;;;3.50;99.90;;;;;;5030939;28;20037;-79
2023/01/18 11:54:54;;;;;;;3.88;2.03;;;3.60;99.90;;;;;;5030710;28;20037;-83
2023/01/18 11:57:20;;;;;;;4.63;1.92;;;3.60;99.90;;;;;;5015959;28;20050;-85
2023/01/18 11:59:47;;;;;;;4.00;2.08;;;3.80;99.90;;;;;;5031594;28;20036;-77
2023/01/18 12:02:37;;;;;;;5.22;2.42;;;3.90;99.90;;;;;;5041197;28;20036;-79
2023/01/18 12:05:06;;;;;;;5.53;1.70;;;3.90;99.90;;;;;;5042850;28;20052;-78
2023/01/18 12:08:17;;;;;;;5.60;2.55;;;3.90;99.90;;;;;;5034559;28;20037;-79
2023/01/18 12:10:58;;;;;;;3.25;2.13;;;3.70;99.90;;;;;;5034734;28;20033;-79
2023/01/18 12:13:59;;;;;;;5.90;2.33;;;3.70;99.90;;;;;;5032169;28;20387;-77
2023/01/18 12:16:39;;;;;;;3.30;2.08;;;3.60;99.90;;;;;;5026710;28;20358;-77
2023/01/18 12:19:53;;;;;;;6.53;2.42;;;3.70;99.90;;;;;;5029470;28;20056;-76
2023/01/18 12:22:38;;;;;;;5.65;3.42;;;4.00;99.90;;;;;;5027901;28;20046;-76
2023/01/18 12:25:22;;;;;;;8.48;3.00;;;4.10;99.90;;;;;;5030405;28;20045;-76
2023/01/18 12:27:55;;;;;;;7.15;3.17;;;4.20;99.90;;;;;;5024834;28;20033;-78
2023/01/18 12:30:37;;;;;;;8.73;3.78;;;4.30;99.90;;;;;;5031077;28;20386;-77
2023/01/18 12:33:24;;;;;;;7.28;4.57;;;4.10;99.90;;;;;;5033845;28;20044;-80
2023/01/18 12:36:16;;;;;;;8.38;2.85;;;3.70;99.90;;;;;;5032830;28;20038;-79
2023/01/18 12:38:53;;;;;;;7.50;2.92;;;3.80;99.90;;;;;;5035217;28;20034;-81
2023/01/18 12:41:27;;;;;;;13.18;3.95;;;3.90;99.90;;;;;;5035992;28;20462;-75
2023/01/18 12:43:59;;;;;;;7.40;3.72;;;3.90;99.90;;;;;;5035304;28;20037;-76
2023/01/18 12:46:51;;;;;;;8.38;3.88;;;4.00;99.90;;;;;;5034066;28;20041;-75
2023/01/18 12:49:20;;;;;;;11.48;6.68;;;3.90;99.90;;;;;;5035093;28;20033;-76
2023/01/18 12:51:54;;;;;;;8.75;3.50;;;4.00;99.90;;;;;;5034593;28;20056;-76
2023/01/18 12:54:44;;;;;;;13.00;5.25;;;4.00;99.90;;;;;;5033548;28;20037;-76
2023/01/18 12:57:13;;;;;;;12.23;4.03;;;4.00;99.90;;;;;;5032640;28;20060;-78
2023/01/18 12:59:54;;;;;;;7.95;3.28;;;4.00;99.90;;;;;;5040226;28;20121;-83
2023/01/18 13:02:31;;;;;;;;;;;3.80;99.90;;;;;;5037222;28;20033;-81
2023/01/18 13:05:25;;;;;;;7.28;3.50;;;3.70;99.90;;;;;;5028638;28;20674;-76
2023/01/18 13:08:05;;;;;;;6.47;3.50;;;3.90;99.90;;;;;;5033666;28;20052;-83
2023/01/18 13:10:33;;;;;;;8.13;3.42;;;4.00;99.90;;;;;;5036405;28;20059;-84
2023/01/18 13:13:02;;;;;;;5.47;3.75;;;4.20;99.90;;;;;;5033069;28;20033;-84
2023/01/18 13:15:34;;;;;;;11.95;3.72;;;4.20;99.90;;;;;;5013189;28;20042;-87
2023/01/18 13:18:31;;;;;;;12.18;3.45;;;4.10;99.90;;;;;;5014091;28;20046;-83
2023/01/18 13:21:10;;;;;;;7.38;3.53;;;3.90;99.90;;;;;;5031157;28;20050;-82
2023/01/18 13:24:12;;;;;;;7.57;3.47;;;4.00;99.90;;;;;;5018823;28;20399;-84
2023/01/18 13:26:39;;;;;;;6.60;3.72;;;3.80;99.90;;;;;;5034262;28;20049;-87
2023/01/18 13:29:18;;;;;;;8.50;3.95;;;3.80;99.90;;;;;;5033628;28;20048;-82
2023/01/18 13:31:45;;;;;;;10.45;4.47;;;3.90;99.90;;;;;;5034567;28;20390;-83
2023/01/18 13:34:27;;;;;;;6.20;4.30;;;4.10;99.90;;;;;;5035073;28;20044;-83
2023/01/18 13:36:54;;;;;;;9.70;4.10;;;4.20;99.90;;;;;;5033786;28;20033;-84
2023/01/18 13:39:21;;;;;;;8.95;3.85;;;4.10;99.90;;;;;;5035106;28;20029;-82
2023/01/18 13:42:03;;;;;;;9.65;4.28;;;4.00;99.90;;;;;;5032906;28;20052;-83
2023/01/18 13:44:42;;;;;;;11.38;4.82;;;3.90;99.90;;;;;;5032733;28;20037;-82
2023/01/18 13:47:44;;;;;;;12.57;4.80;;;4.00;99.90;;;;;;5034485;28;20037;-82
2023/01/18 13:50:38;;;;;;;8.52;4.05;;;3.90;99.90;;;;;;5034347;28;20037;-88
2023/01/18 13:53:13;;;;;;;10.35;3.75;;;3.80;99.90;;;;;;5042876;28;20037;-84
2023/01/18 13:56:09;;;;;;;8.10;4.30;;;3.70;99.90;;;;;;5054435;28;20018;-84
2023/01/18 13:58:43;;;;;;;6.97;3.53;;;3.70;99.90;;;;;;5024452;28;20056;-87
2023/01/18 14:01:21;;;;;;;7.88;3.83;;;3.80;99.90;;;;;;5033303;28;20033;-86